sensor_id;sensor_type;location;lat;lon;timestamp;pressure;altitude;pressure_sealevel;temperature;humidity
28927;BME280;16038;47.692;9.400;2023-02-15T00:01:19;97983.00;;;-1.17;100.00
28927;BME280;16038;47.692;9.400;2023-02-15T00:03:47;97986.19;;;-1.20;100.00
28927;BME280;16038;47.692;9.400;2023-02-15T00:06:12;97987.84;;;-1.19;100.00
28927;BME280;16038;47.692;9.400;2023-02-15T00:08:37;97989.63;;;-1.29;100.00
28927;BME280;16038;47.692;9.400;2023-02-15T00:11:04;97978.91;;;-1.24;100.00
28927;BME280;16038;47.692;9.400;2023-02-15T00:13:29;97972.94;;;-1.37;100.00
28927;BME280;16038;47.692;9.400;2023-02-15T00:15:56;97972.75;;;-1.20;100.00
28927;BME280;16038;47.692;9.400;2023-02-15T00:18:24;97969.03;;;-1.13;100.00
28927;BME280;16038;47.692;9.400;2023-02-15T00:20:50;97972.50;;;-1.18;100.00
28927;BME280;16038;47.692;9.400;2023-02-15T00:23:15;97970.41;;;-1.11;100.00
28927;BME280;16038;47.692;9.400;2023-02-15T00:25:40;97967.97;;;-1.12;100.00
28927;BME280;16038;47.692;9.400;2023-02-15T00:28:05;97966.91;;;-1.06;100.00
28927;BME280;16038;47.692;9.400;2023-02-15T00:30:31;97978.25;;;-1.04;100.00
28927;BME280;16038;47.692;9.400;2023-02-15T00:32:56;97971.50;;;-1.07;100.00
28927;BME280;16038;47.692;9.400;2023-02-15T00:35:21;97975.56;;;-1.04;100.00
28927;BME280;16038;47.692;9.400;2023-02-15T00:37:46;97965.31;;;-1.07;100.00
28927;BME280;16038;47.692;9.400;2023-02-15T00:40:12;97969.34;;;-1.05;100.00
28927;BME280;16038;47.692;9.400;2023-02-15T00:42:40;97970.97;;;-1.04;100.00
28927;BME280;16038;47.692;9.400;2023-02-15T00:45:06;97964.81;;;-1.04;100.00
28927;BME280;16038;47.692;9.400;2023-02-15T00:47:31;97954.28;;;-1.11;100.00
28927;BME280;16038;47.692;9.400;2023-02-15T00:49:57;97952.31;;;-1.26;100.00
28927;BME280;16038;47.692;9.400;2023-02-15T00:52:22;97951.22;;;-1.25;100.00
28927;BME280;16038;47.692;9.400;2023-02-15T00:54:47;97954.13;;;-1.69;100.00
28927;BME280;16038;47.692;9.400;2023-02-15T00:57:13;97956.59;;;-1.62;100.00
28927;BME280;16038;47.692;9.400;2023-02-15T00:59:38;97952.47;;;-1.75;100.00
28927;BME280;16038;47.692;9.400;2023-02-15T01:02:03;97956.38;;;-1.88;100.00
28927;BME280;16038;47.692;9.400;2023-02-15T01:04:28;97959.88;;;-1.87;100.00
28927;BME280;16038;47.692;9.400;2023-02-15T01:06:54;97966.13;;;-1.77;100.00
28927;BME280;16038;47.692;9.400;2023-02-15T01:09:19;97961.59;;;-1.76;100.00
28927;BME280;16038;47.692;9.400;2023-02-15T01:11:44;97959.94;;;-1.45;100.00
28927;BME280;16038;47.692;9.400;2023-02-15T01:14:09;97965.13;;;-1.70;100.00
28927;BME280;16038;47.692;9.400;2023-02-15T01:16:35;97963.28;;;-1.65;100.00
28927;BME280;16038;47.692;9.400;2023-02-15T01:19:01;97958.59;;;-1.47;100.00
28927;BME280;16038;47.692;9.400;2023-02-15T01:21:27;97961.00;;;-1.51;100.00
28927;BME280;16038;47.692;9.400;2023-02-15T01:23:53;97953.06;;;-1.68;100.00
28927;BME280;16038;47.692;9.400;2023-02-15T01:26:18;97953.81;;;-1.40;100.00
28927;BME280;16038;47.692;9.400;2023-02-15T01:28:44;97961.97;;;-1.25;100.00
28927;BME280;16038;47.692;9.400;2023-02-15T01:31:10;97966.59;;;-1.20;100.00
28927;BME280;16038;47.692;9.400;2023-02-15T01:33:36;97958.00;;;-1.12;100.00
28927;BME280;16038;47.692;9.400;2023-02-15T01:36:01;97958.50;;;-1.20;100.00
28927;BME280;16038;47.692;9.400;2023-02-15T01:38:27;97957.13;;;-1.23;100.00
28927;BME280;16038;47.692;9.400;2023-02-15T01:40:52;97962.69;;;-1.40;100.00
28927;BME280;16038;47.692;9.400;2023-02-15T01:43:18;97955.16;;;-1.38;100.00
28927;BME280;16038;47.692;9.400;2023-02-15T01:45:43;97960.84;;;-1.34;100.00
28927;BME280;16038;47.692;9.400;2023-02-15T01:48:19;97963.28;;;-1.32;100.00
28927;BME280;16038;47.692;9.400;2023-02-15T01:50:50;97953.31;;;-1.32;100.00
28927;BME280;16038;47.692;9.400;2023-02-15T01:55:52;97954.66;;;-1.35;100.00
28927;BME280;16038;47.692;9.400;2023-02-15T01:58:19;97958.06;;;-1.49;100.00
28927;BME280;16038;47.692;9.400;2023-02-15T02:00:45;97957.63;;;-1.68;100.00
28927;BME280;16038;47.692;9.400;2023-02-15T02:03:10;97957.72;;;-2.18;100.00
28927;BME280;16038;47.692;9.400;2023-02-15T02:05:36;97949.50;;;-2.33;100.00
28927;BME280;16038;47.692;9.400;2023-02-15T02:08:03;97947.97;;;-2.51;100.00
28927;BME280;16038;47.692;9.400;2023-02-15T02:10:28;97947.97;;;-2.51;100.00
28927;BME280;16038;47.692;9.400;2023-02-15T02:12:54;97944.66;;;-2.58;100.00
28927;BME280;16038;47.692;9.400;2023-02-15T02:15:28;97946.66;;;-2.71;100.00
28927;BME280;16038;47.692;9.400;2023-02-15T02:43:51;97954.75;;;-2.43;100.00
28927;BME280;16038;47.692;9.400;2023-02-15T02:46:22;97949.91;;;-2.19;100.00
28927;BME280;16038;47.692;9.400;2023-02-15T02:48:49;97949.72;;;-1.85;100.00
28927;BME280;16038;47.692;9.400;2023-02-15T02:51:15;97944.41;;;-1.75;100.00
28927;BME280;16038;47.692;9.400;2023-02-15T02:53:47;97948.22;;;-1.71;100.00
28927;BME280;16038;47.692;9.400;2023-02-15T02:58:52;97941.06;;;-1.87;100.00
28927;BME280;16038;47.692;9.400;2023-02-15T03:01:25;97951.69;;;-1.70;100.00
28927;BME280;16038;47.692;9.400;2023-02-15T03:03:53;97950.72;;;-1.59;100.00
28927;BME280;16038;47.692;9.400;2023-02-15T03:06:23;97946.44;;;-1.55;100.00
28927;BME280;16038;47.692;9.400;2023-02-15T03:08:53;97952.09;;;-1.57;100.00
28927;BME280;16038;47.692;9.400;2023-02-15T03:11:21;97944.59;;;-1.87;100.00
28927;BME280;16038;47.692;9.400;2023-02-15T03:13:47;97941.66;;;-2.13;100.00
28927;BME280;16038;47.692;9.400;2023-02-15T03:16:13;97947.63;;;-2.33;100.00
28927;BME280;16038;47.692;9.400;2023-02-15T03:18:56;97948.81;;;-2.45;100.00
28927;BME280;16038;47.692;9.400;2023-02-15T03:21:27;97954.22;;;-2.67;100.00
28927;BME280;16038;47.692;9.400;2023-02-15T03:23:58;97951.59;;;-2.62;100.00
28927;BME280;16038;47.692;9.400;2023-02-15T03:26:24;97956.75;;;-2.34;100.00
28927;BME280;16038;47.692;9.400;2023-02-15T03:28:50;97952.38;;;-2.40;100.00
28927;BME280;16038;47.692;9.400;2023-02-15T03:31:20;97955.47;;;-2.75;100.00
28927;BME280;16038;47.692;9.400;2023-02-15T03:33:49;97945.84;;;-2.71;100.00
28927;BME280;16038;47.692;9.400;2023-02-15T03:38:57;97953.03;;;-2.00;100.00
28927;BME280;16038;47.692;9.400;2023-02-15T03:41:25;97951.56;;;-1.86;100.00
28927;BME280;16038;47.692;9.400;2023-02-15T03:43:54;97953.28;;;-1.75;100.00
28927;BME280;16038;47.692;9.400;2023-02-15T03:48:53;97949.00;;;-1.70;100.00
28927;BME280;16038;47.692;9.400;2023-02-15T03:51:20;97947.94;;;-1.69;100.00
28927;BME280;16038;47.692;9.400;2023-02-15T03:53:58;97950.38;;;-1.68;100.00
28927;BME280;16038;47.692;9.400;2023-02-15T03:56:25;97949.56;;;-1.68;100.00
28927;BME280;16038;47.692;9.400;2023-02-15T03:58:50;97949.31;;;-1.67;100.00
28927;BME280;16038;47.692;9.400;2023-02-15T04:01:38;97950.31;;;-1.73;100.00
28927;BME280;16038;47.692;9.400;2023-02-15T04:04:26;97956.53;;;-1.73;100.00
28927;BME280;16038;47.692;9.400;2023-02-15T04:06:52;97950.91;;;-1.66;100.00
28927;BME280;16038;47.692;9.400;2023-02-15T04:09:18;97943.94;;;-1.67;100.00
28927;BME280;16038;47.692;9.400;2023-02-15T04:12:03;97949.69;;;-1.53;100.00
28927;BME280;16038;47.692;9.400;2023-02-15T04:14:29;97957.97;;;-1.60;100.00
28927;BME280;16038;47.692;9.400;2023-02-15T04:17:13;97954.91;;;-1.74;100.00
28927;BME280;16038;47.692;9.400;2023-02-15T04:19:38;97957.19;;;-2.15;100.00
28927;BME280;16038;47.692;9.400;2023-02-15T04:22:22;97959.03;;;-2.20;100.00
28927;BME280;16038;47.692;9.400;2023-02-15T04:25:06;97960.00;;;-2.04;100.00
28927;BME280;16038;47.692;9.400;2023-02-15T04:27:36;97966.94;;;-2.08;100.00
28927;BME280;16038;47.692;9.400;2023-02-15T04:30:02;97962.97;;;-2.77;100.00
28927;BME280;16038;47.692;9.400;2023-02-15T04:32:27;97963.25;;;-2.52;100.00
28927;BME280;16038;47.692;9.400;2023-02-15T04:34:53;97962.91;;;-2.33;100.00
28927;BME280;16038;47.692;9.400;2023-02-15T04:37:18;97961.41;;;-2.24;100.00
28927;BME280;16038;47.692;9.400;2023-02-15T04:39:43;97958.88;;;-2.08;100.00
28927;BME280;16038;47.692;9.400;2023-02-15T04:42:09;97956.28;;;-2.25;100.00
28927;BME280;16038;47.692;9.400;2023-02-15T04:44:34;97961.16;;;-2.22;100.00
28927;BME280;16038;47.692;9.400;2023-02-15T04:46:59;97952.00;;;-1.99;100.00
28927;BME280;16038;47.692;9.400;2023-02-15T04:49:24;97945.88;;;-1.89;100.00
28927;BME280;16038;47.692;9.400;2023-02-15T04:51:50;97948.66;;;-1.79;100.00
28927;BME280;16038;47.692;9.400;2023-02-15T04:54:15;97946.25;;;-1.81;100.00
28927;BME280;16038;47.692;9.400;2023-02-15T04:56:40;97952.53;;;-1.97;100.00
28927;BME280;16038;47.692;9.400;2023-02-15T04:59:05;97956.03;;;-1.97;100.00
28927;BME280;16038;47.692;9.400;2023-02-15T05:01:31;97961.94;;;-1.95;100.00
28927;BME280;16038;47.692;9.400;2023-02-15T05:03:56;97953.69;;;-1.88;100.00
28927;BME280;16038;47.692;9.400;2023-02-15T05:06:21;97952.41;;;-1.85;100.00
28927;BME280;16038;47.692;9.400;2023-02-15T05:08:46;97948.81;;;-1.91;100.00
28927;BME280;16038;47.692;9.400;2023-02-15T05:11:12;97954.97;;;-1.96;100.00
28927;BME280;16038;47.692;9.400;2023-02-15T05:13:37;97953.09;;;-1.95;100.00
28927;BME280;16038;47.692;9.400;2023-02-15T05:16:03;97952.91;;;-2.16;100.00
28927;BME280;16038;47.692;9.400;2023-02-15T05:18:28;97957.84;;;-2.29;100.00
28927;BME280;16038;47.692;9.400;2023-02-15T05:20:53;97955.41;;;-2.31;100.00
28927;BME280;16038;47.692;9.400;2023-02-15T05:23:18;97958.41;;;-2.27;100.00
28927;BME280;16038;47.692;9.400;2023-02-15T05:25:48;97962.19;;;-2.23;100.00
28927;BME280;16038;47.692;9.400;2023-02-15T05:28:31;97958.34;;;-2.05;100.00
28927;BME280;16038;47.692;9.400;2023-02-15T05:31:07;97953.03;;;-2.00;100.00
28927;BME280;16038;47.692;9.400;2023-02-15T05:33:34;97946.91;;;-1.96;100.00
28927;BME280;16038;47.692;9.400;2023-02-15T05:36:00;97953.81;;;-2.32;100.00
28927;BME280;16038;47.692;9.400;2023-02-15T05:38:25;97953.91;;;-2.71;100.00
28927;BME280;16038;47.692;9.400;2023-02-15T05:40:51;97953.28;;;-2.78;100.00
28927;BME280;16038;47.692;9.400;2023-02-15T05:43:16;97952.59;;;-2.69;100.00
28927;BME280;16038;47.692;9.400;2023-02-15T05:45:45;97954.47;;;-2.91;100.00
28927;BME280;16038;47.692;9.400;2023-02-15T05:48:11;97952.97;;;-3.04;100.00
28927;BME280;16038;47.692;9.400;2023-02-15T05:50:36;97953.69;;;-2.86;100.00
28927;BME280;16038;47.692;9.400;2023-02-15T05:53:01;97952.91;;;-2.65;100.00
28927;BME280;16038;47.692;9.400;2023-02-15T05:55:26;97947.25;;;-2.41;100.00
28927;BME280;16038;47.692;9.400;2023-02-15T05:57:52;97948.28;;;-2.20;100.00
28927;BME280;16038;47.692;9.400;2023-02-15T06:00:17;97949.81;;;-2.02;100.00
28927;BME280;16038;47.692;9.400;2023-02-15T06:02:43;97946.66;;;-1.94;100.00
28927;BME280;16038;47.692;9.400;2023-02-15T06:05:08;97945.88;;;-1.89;100.00
28927;BME280;16038;47.692;9.400;2023-02-15T06:07:33;97949.34;;;-1.94;100.00
28927;BME280;16038;47.692;9.400;2023-02-15T06:09:59;97952.66;;;-2.14;100.00
28927;BME280;16038;47.692;9.400;2023-02-15T06:12:25;97954.88;;;-2.06;100.00
28927;BME280;16038;47.692;9.400;2023-02-15T06:14:50;97960.53;;;-2.02;100.00
28927;BME280;16038;47.692;9.400;2023-02-15T06:17:16;97957.66;;;-1.96;100.00
28927;BME280;16038;47.692;9.400;2023-02-15T06:19:42;97954.50;;;-1.87;100.00
28927;BME280;16038;47.692;9.400;2023-02-15T06:22:07;97957.81;;;-1.75;100.00
28927;BME280;16038;47.692;9.400;2023-02-15T06:24:33;97961.66;;;-1.71;100.00
28927;BME280;16038;47.692;9.400;2023-02-15T06:26:58;97961.91;;;-1.73;100.00
28927;BME280;16038;47.692;9.400;2023-02-15T06:29:23;97970.66;;;-1.50;100.00
28927;BME280;16038;47.692;9.400;2023-02-15T06:31:49;97973.72;;;-1.36;100.00
28927;BME280;16038;47.692;9.400;2023-02-15T06:34:14;97969.84;;;-1.50;100.00
28927;BME280;16038;47.692;9.400;2023-02-15T06:36:40;97973.38;;;-1.45;100.00
28927;BME280;16038;47.692;9.400;2023-02-15T06:39:05;97970.66;;;-1.50;100.00
28927;BME280;16038;47.692;9.400;2023-02-15T06:41:31;97968.81;;;-1.44;100.00
28927;BME280;16038;47.692;9.400;2023-02-15T06:43:56;97971.75;;;-1.51;100.00
28927;BME280;16038;47.692;9.400;2023-02-15T06:46:21;97973.31;;;-1.55;100.00
28927;BME280;16038;47.692;9.400;2023-02-15T06:48:46;97975.44;;;-1.57;100.00
28927;BME280;16038;47.692;9.400;2023-02-15T06:51:12;97978.44;;;-1.54;100.00
28927;BME280;16038;47.692;9.400;2023-02-15T06:53:37;97981.38;;;-1.55;100.00
28927;BME280;16038;47.692;9.400;2023-02-15T06:56:03;97980.75;;;-1.67;100.00
28927;BME280;16038;47.692;9.400;2023-02-15T06:58:32;97983.34;;;-1.78;100.00
28927;BME280;16038;47.692;9.400;2023-02-15T07:00:57;97981.19;;;-1.76;100.00
28927;BME280;16038;47.692;9.400;2023-02-15T07:03:22;97989.25;;;-1.76;100.00
28927;BME280;16038;47.692;9.400;2023-02-15T07:05:47;97991.16;;;-1.76;100.00
28927;BME280;16038;47.692;9.400;2023-02-15T07:08:13;97994.13;;;-1.73;100.00
28927;BME280;16038;47.692;9.400;2023-02-15T07:10:39;97983.44;;;-1.67;100.00
28927;BME280;16038;47.692;9.400;2023-02-15T07:13:04;97981.44;;;-1.77;100.00
28927;BME280;16038;47.692;9.400;2023-02-15T07:15:29;97992.25;;;-1.72;100.00
28927;BME280;16038;47.692;9.400;2023-02-15T07:17:56;97993.59;;;-1.75;100.00
28927;BME280;16038;47.692;9.400;2023-02-15T07:20:22;97990.91;;;-1.69;100.00
28927;BME280;16038;47.692;9.400;2023-02-15T07:22:48;97996.88;;;-1.67;100.00
28927;BME280;16038;47.692;9.400;2023-02-15T07:25:13;98003.28;;;-1.68;100.00
28927;BME280;16038;47.692;9.400;2023-02-15T07:27:39;97999.75;;;-1.74;100.00
28927;BME280;16038;47.692;9.400;2023-02-15T07:30:05;98003.84;;;-1.66;100.00
28927;BME280;16038;47.692;9.400;2023-02-15T07:32:31;98005.53;;;-1.60;100.00
28927;BME280;16038;47.692;9.400;2023-02-15T07:34:57;98004.19;;;-1.58;100.00
28927;BME280;16038;47.692;9.400;2023-02-15T07:37:23;97991.81;;;-1.59;100.00
28927;BME280;16038;47.692;9.400;2023-02-15T07:39:48;97994.50;;;-1.59;100.00
28927;BME280;16038;47.692;9.400;2023-02-15T07:42:14;97996.13;;;-1.58;100.00
28927;BME280;16038;47.692;9.400;2023-02-15T07:44:39;97987.56;;;-1.55;100.00
28927;BME280;16038;47.692;9.400;2023-02-15T07:47:04;97987.03;;;-1.57;100.00
28927;BME280;16038;47.692;9.400;2023-02-15T07:49:29;97982.78;;;-1.47;100.00
28927;BME280;16038;47.692;9.400;2023-02-15T07:51:55;97981.69;;;-1.46;100.00
28927;BME280;16038;47.692;9.400;2023-02-15T07:54:20;97978.50;;;-1.43;100.00
28927;BME280;16038;47.692;9.400;2023-02-15T07:56:46;97976.13;;;-1.40;100.00
28927;BME280;16038;47.692;9.400;2023-02-15T07:59:11;97974.78;;;-1.37;100.00
28927;BME280;16038;47.692;9.400;2023-02-15T08:01:37;97976.47;;;-1.31;100.00
28927;BME280;16038;47.692;9.400;2023-02-15T08:04:03;97971.91;;;-1.25;100.00
28927;BME280;16038;47.692;9.400;2023-02-15T08:06:30;97970.28;;;-1.26;100.00
28927;BME280;16038;47.692;9.400;2023-02-15T08:08:56;97975.66;;;-1.26;100.00
28927;BME280;16038;47.692;9.400;2023-02-15T08:11:26;97972.59;;;-1.45;100.00
28927;BME280;16038;47.692;9.400;2023-02-15T08:14:01;97973.22;;;-1.33;100.00
28927;BME280;16038;47.692;9.400;2023-02-15T08:18:55;97968.84;;;-1.02;100.00
28927;BME280;16038;47.692;9.400;2023-02-15T08:21:21;97969.59;;;-1.11;100.00
28927;BME280;16038;47.692;9.400;2023-02-15T08:23:46;97965.78;;;-1.16;100.00
28927;BME280;16038;47.692;9.400;2023-02-15T08:26:12;97961.53;;;-1.06;100.00
28927;BME280;16038;47.692;9.400;2023-02-15T08:28:37;97961.31;;;-1.00;100.00
28927;BME280;16038;47.692;9.400;2023-02-15T08:31:10;97960.28;;;-0.88;100.00
28927;BME280;16038;47.692;9.400;2023-02-15T08:33:36;97960.06;;;-0.82;100.00
28927;BME280;16038;47.692;9.400;2023-02-15T08:36:05;97970.28;;;-0.84;100.00
28927;BME280;16038;47.692;9.400;2023-02-15T08:38:31;97964.97;;;-0.73;100.00
28927;BME280;16038;47.692;9.400;2023-02-15T08:40:57;97968.22;;;-0.66;100.00
28927;BME280;16038;47.692;9.400;2023-02-15T08:43:22;97967.72;;;-0.53;100.00
28927;BME280;16038;47.692;9.400;2023-02-15T08:45:47;97968.28;;;-0.46;100.00
28927;BME280;16038;47.692;9.400;2023-02-15T08:48:13;97963.94;;;-0.57;100.00
28927;BME280;16038;47.692;9.400;2023-02-15T08:50:38;97964.28;;;-0.43;100.00
28927;BME280;16038;47.692;9.400;2023-02-15T08:53:03;97964.28;;;-0.33;100.00
28927;BME280;16038;47.692;9.400;2023-02-15T08:55:28;97960.28;;;-0.25;100.00
28927;BME280;16038;47.692;9.400;2023-02-15T08:57:54;97963.81;;;-0.20;100.00
28927;BME280;16038;47.692;9.400;2023-02-15T09:00:20;97965.97;;;-0.22;100.00
28927;BME280;16038;47.692;9.400;2023-02-15T09:02:47;97958.41;;;-0.20;100.00
28927;BME280;16038;47.692;9.400;2023-02-15T09:05:13;97961.38;;;-0.16;100.00
28927;BME280;16038;47.692;9.400;2023-02-15T09:07:38;97959.13;;;-0.50;100.00
28927;BME280;16038;47.692;9.400;2023-02-15T09:10:04;97958.66;;;-0.26;100.00
28927;BME280;16038;47.692;9.400;2023-02-15T09:12:29;97963.53;;;-0.13;100.00
28927;BME280;16038;47.692;9.400;2023-02-15T09:14:55;97954.50;;;-0.60;100.00
28927;BME280;16038;47.692;9.400;2023-02-15T09:17:20;97955.00;;;-0.73;100.00
28927;BME280;16038;47.692;9.400;2023-02-15T09:19:45;97950.97;;;-0.70;100.00
28927;BME280;16038;47.692;9.400;2023-02-15T09:22:10;97952.81;;;-0.76;100.00
28927;BME280;16038;47.692;9.400;2023-02-15T09:24:36;97955.19;;;-0.85;100.00
28927;BME280;16038;47.692;9.400;2023-02-15T09:27:01;97953.47;;;-0.53;100.00
28927;BME280;16038;47.692;9.400;2023-02-15T09:29:26;97954.00;;;-0.51;100.00
28927;BME280;16038;47.692;9.400;2023-02-15T09:31:51;97949.75;;;-1.00;100.00
28927;BME280;16038;47.692;9.400;2023-02-15T09:34:19;97943.56;;;-0.96;100.00
28927;BME280;16038;47.692;9.400;2023-02-15T09:36:45;97943.84;;;-0.34;100.00
28927;BME280;16038;47.692;9.400;2023-02-15T09:39:15;97950.91;;;-0.02;100.00
28927;BME280;16038;47.692;9.400;2023-02-15T09:41:46;97950.91;;;-0.12;100.00
28927;BME280;16038;47.692;9.400;2023-02-15T09:55:05;97940.97;;;0.50;100.00
28927;BME280;16038;47.692;9.400;2023-02-15T10:05:31;97939.84;;;0.71;100.00
28927;BME280;16038;47.692;9.400;2023-02-15T10:08:23;97934.72;;;0.85;100.00
28927;BME280;16038;47.692;9.400;2023-02-15T10:18:16;97937.88;;;1.08;100.00
28927;BME280;16038;47.692;9.400;2023-02-15T10:21:00;97943.34;;;0.92;100.00
28927;BME280;16038;47.692;9.400;2023-02-15T10:28:46;97928.28;;;0.25;100.00
28927;BME280;16038;47.692;9.400;2023-02-15T10:33:47;97921.78;;;0.82;100.00
28927;BME280;16038;47.692;9.400;2023-02-15T10:57:03;97897.31;;;0.07;100.00
28927;BME280;16038;47.692;9.400;2023-02-15T11:05:02;97883.38;;;1.11;100.00
28927;BME280;16038;47.692;9.400;2023-02-15T11:07:35;97878.50;;;1.18;100.00
28927;BME280;16038;47.692;9.400;2023-02-15T11:10:38;97881.81;;;0.94;100.00
28927;BME280;16038;47.692;9.400;2023-02-15T11:12:54;97873.06;;;0.12;100.00
28927;BME280;16038;47.692;9.400;2023-02-15T11:17:51;97861.44;;;-0.35;100.00
28927;BME280;16038;47.692;9.400;2023-02-15T11:20:25;97854.19;;;-0.19;100.00
28927;BME280;16038;47.692;9.400;2023-02-15T11:22:52;97857.13;;;0.51;100.00
28927;BME280;16038;47.692;9.400;2023-02-15T11:25:25;97855.97;;;0.88;100.00
28927;BME280;16038;47.692;9.400;2023-02-15T11:27:53;97850.22;;;1.05;100.00
28927;BME280;16038;47.692;9.400;2023-02-15T11:30:21;97848.38;;;0.95;100.00
28927;BME280;16038;47.692;9.400;2023-02-15T11:32:47;97853.13;;;1.19;100.00
28927;BME280;16038;47.692;9.400;2023-02-15T11:35:20;97843.22;;;1.54;100.00
28927;BME280;16038;47.692;9.400;2023-02-15T11:40:26;97833.53;;;1.87;100.00
28927;BME280;16038;47.692;9.400;2023-02-15T11:42:56;97837.63;;;1.80;100.00
28927;BME280;16038;47.692;9.400;2023-02-15T11:45:29;97831.75;;;1.67;100.00
28927;BME280;16038;47.692;9.400;2023-02-15T11:47:55;97827.09;;;1.78;100.00
28927;BME280;16038;47.692;9.400;2023-02-15T11:50:22;97830.66;;;2.08;100.00
28927;BME280;16038;47.692;9.400;2023-02-15T11:52:52;97826.16;;;2.27;100.00
28927;BME280;16038;47.692;9.400;2023-02-15T11:55:22;97828.72;;;2.43;100.00
28927;BME280;16038;47.692;9.400;2023-02-15T11:58:05;97823.75;;;2.26;100.00
28927;BME280;16038;47.692;9.400;2023-02-15T12:00:37;97818.47;;;2.10;100.00
28927;BME280;16038;47.692;9.400;2023-02-15T12:03:39;97827.03;;;2.52;100.00
28927;BME280;16038;47.692;9.400;2023-02-15T12:06:00;97823.06;;;2.68;100.00
28927;BME280;16038;47.692;9.400;2023-02-15T12:08:26;97816.94;;;2.58;100.00
28927;BME280;16038;47.692;9.400;2023-02-15T12:11:03;97815.66;;;2.50;100.00
28927;BME280;16038;47.692;9.400;2023-02-15T12:13:31;97819.88;;;2.61;100.00
28927;BME280;16038;47.692;9.400;2023-02-15T12:15:56;97810.03;;;2.71;100.00
28927;BME280;16038;47.692;9.400;2023-02-15T12:20:59;97796.72;;;1.62;100.00
28927;BME280;16038;47.692;9.400;2023-02-15T12:23:27;97791.66;;;1.50;100.00
28927;BME280;16038;47.692;9.400;2023-02-15T12:25:53;97787.47;;;2.03;100.00
28927;BME280;16038;47.692;9.400;2023-02-15T12:28:25;97781.03;;;2.52;100.00
28927;BME280;16038;47.692;9.400;2023-02-15T12:30:51;97786.00;;;2.88;100.00
28927;BME280;16038;47.692;9.400;2023-02-15T12:35:54;97778.81;;;2.78;100.00
28927;BME280;16038;47.692;9.400;2023-02-15T12:38:23;97777.44;;;2.81;100.00
28927;BME280;16038;47.692;9.400;2023-02-15T12:40:59;97777.53;;;2.95;100.00
28927;BME280;16038;47.692;9.400;2023-02-15T12:45:52;97777.09;;;2.87;100.00
28927;BME280;16038;47.692;9.400;2023-02-15T12:48:18;97777.59;;;2.90;100.00
28927;BME280;16038;47.692;9.400;2023-02-15T12:50:45;97766.72;;;2.95;100.00
28927;BME280;16038;47.692;9.400;2023-02-15T12:58:16;97756.28;;;2.40;100.00
28927;BME280;16038;47.692;9.400;2023-02-15T13:00:44;97750.25;;;2.72;100.00
28927;BME280;16038;47.692;9.400;2023-02-15T13:03:17;97745.84;;;2.76;100.00
28927;BME280;16038;47.692;9.400;2023-02-15T13:05:44;97745.78;;;3.00;100.00
28927;BME280;16038;47.692;9.400;2023-02-15T13:08:30;97739.41;;;2.72;100.00
28927;BME280;16038;47.692;9.400;2023-02-15T13:11:09;97732.47;;;3.04;100.00
28927;BME280;16038;47.692;9.400;2023-02-15T13:13:36;97726.78;;;3.24;100.00
28927;BME280;16038;47.692;9.400;2023-02-15T13:16:10;97721.53;;;3.33;100.00
28927;BME280;16038;47.692;9.400;2023-02-15T13:18:37;97726.66;;;3.16;100.00
28927;BME280;16038;47.692;9.400;2023-02-15T13:23:31;97719.91;;;3.32;100.00
28927;BME280;16038;47.692;9.400;2023-02-15T13:26:02;97715.50;;;3.55;100.00
28927;BME280;16038;47.692;9.400;2023-02-15T13:28:32;97718.78;;;3.85;100.00
28927;BME280;16038;47.692;9.400;2023-02-15T13:31:01;97712.59;;;3.98;100.00
28927;BME280;16038;47.692;9.400;2023-02-15T13:33:30;97719.13;;;4.39;100.00
28927;BME280;16038;47.692;9.400;2023-02-15T13:41:01;97709.50;;;4.60;100.00
28927;BME280;16038;47.692;9.400;2023-02-15T13:48:47;97700.06;;;4.44;100.00
28927;BME280;16038;47.692;9.400;2023-02-15T14:06:47;97683.34;;;3.49;100.00
28927;BME280;16038;47.692;9.400;2023-02-15T14:09:21;97679.72;;;3.39;100.00
28927;BME280;16038;47.692;9.400;2023-02-15T14:12:00;97681.50;;;3.30;100.00
28927;BME280;16038;47.692;9.400;2023-02-15T14:14:44;97679.31;;;3.79;100.00
28927;BME280;16038;47.692;9.400;2023-02-15T14:17:36;97677.88;;;4.14;100.00
28927;BME280;16038;47.692;9.400;2023-02-15T14:20:08;97681.78;;;4.22;100.00
28927;BME280;16038;47.692;9.400;2023-02-15T14:22:43;97678.16;;;4.27;100.00
28927;BME280;16038;47.692;9.400;2023-02-15T14:30:14;97678.66;;;3.54;100.00
28927;BME280;16038;47.692;9.400;2023-02-15T14:32:44;97678.44;;;3.51;100.00
28927;BME280;16038;47.692;9.400;2023-02-15T14:35:14;97673.09;;;3.45;100.00
28927;BME280;16038;47.692;9.400;2023-02-15T14:43:17;97670.88;;;3.15;100.00
28927;BME280;16038;47.692;9.400;2023-02-15T14:45:55;97683.19;;;2.88;100.00
28927;BME280;16038;47.692;9.400;2023-02-15T14:50:51;97680.69;;;2.73;100.00
28927;BME280;16038;47.692;9.400;2023-02-15T14:58:35;97671.03;;;2.47;100.00
28927;BME280;16038;47.692;9.400;2023-02-15T15:01:05;97669.38;;;2.27;100.00
28927;BME280;16038;47.692;9.400;2023-02-15T15:03:31;97677.81;;;2.21;100.00
28927;BME280;16038;47.692;9.400;2023-02-15T15:05:57;97675.78;;;2.13;100.00
28927;BME280;16038;47.692;9.400;2023-02-15T15:10:53;97676.75;;;2.22;100.00
28927;BME280;16038;47.692;9.400;2023-02-15T15:15:56;97670.44;;;1.78;100.00
28927;BME280;16038;47.692;9.400;2023-02-15T15:21:06;97672.78;;;1.61;100.00
28927;BME280;16038;47.692;9.400;2023-02-15T15:23:41;97674.97;;;1.59;100.00
28927;BME280;16038;47.692;9.400;2023-02-15T15:26:21;97667.25;;;1.71;100.00
28927;BME280;16038;47.692;9.400;2023-02-15T15:31:17;97668.41;;;1.65;100.00
28927;BME280;16038;47.692;9.400;2023-02-15T15:36:30;97670.56;;;1.68;100.00
28927;BME280;16038;47.692;9.400;2023-02-15T15:41:41;97665.28;;;1.52;100.00
28927;BME280;16038;47.692;9.400;2023-02-15T15:49:34;97671.22;;;1.20;100.00
28927;BME280;16038;47.692;9.400;2023-02-15T15:52:02;97663.50;;;1.08;100.00
28927;BME280;16038;47.692;9.400;2023-02-15T15:54:33;97665.34;;;1.13;100.00
28927;BME280;16038;47.692;9.400;2023-02-15T15:57:00;97676.63;;;1.20;100.00
28927;BME280;16038;47.692;9.400;2023-02-15T15:59:28;97674.91;;;1.29;100.00
28927;BME280;16038;47.692;9.400;2023-02-15T16:01:54;97672.28;;;1.24;100.00